createdAt,value
2019-03-05T00:02:25.104Z,12.80
2019-03-05T00:04:59.745Z,12.90
2019-03-05T00:07:34.296Z,12.90
2019-03-05T00:10:10.354Z,13.00
2019-03-05T00:12:44.916Z,13.00
2019-03-05T00:15:22.699Z,13.00
2019-03-05T00:17:57.489Z,13.00
2019-03-05T00:20:32.050Z,13.00
2019-03-05T00:23:08.344Z,13.00
2019-03-05T00:25:42.861Z,13.00
2019-03-05T00:28:28.896Z,13.00
2019-03-05T00:31:10.959Z,13.00
2019-03-05T00:34:17.472Z,12.90
2019-03-05T00:37:02.324Z,12.90
2019-03-05T00:40:21.045Z,12.90
2019-03-05T00:43:32.381Z,12.80
2019-03-05T00:46:31.866Z,12.80
2019-03-05T00:49:25.352Z,12.70
2019-03-05T00:52:37.238Z,12.60
2019-03-05T00:55:44.119Z,12.60
2019-03-05T00:58:59.639Z,12.50
2019-03-05T01:02:24.801Z,12.50
2019-03-05T01:05:28.322Z,12.40
2019-03-05T01:08:02.941Z,12.40
2019-03-05T01:10:37.567Z,12.30
2019-03-05T01:13:12.522Z,12.30
2019-03-05T01:15:47.489Z,12.20
2019-03-05T01:18:22.062Z,12.20
2019-03-05T01:20:56.684Z,12.10
2019-03-05T01:23:31.321Z,12.10
2019-03-05T01:26:05.884Z,12.10
2019-03-05T01:28:40.565Z,12.00
2019-03-05T01:31:27.499Z,12.10
2019-03-05T01:34:06.300Z,12.00
2019-03-05T01:36:44.089Z,12.00
2019-03-05T01:39:49.611Z,12.00
2019-03-05T01:42:24.195Z,12.00
2019-03-05T01:44:58.764Z,12.00
2019-03-05T01:47:33.311Z,12.00
2019-03-05T01:50:10.078Z,12.00
2019-03-05T01:52:46.253Z,12.00
2019-03-05T01:55:20.820Z,12.00
2019-03-05T01:57:55.440Z,12.10
2019-03-05T02:00:30.106Z,12.10
2019-03-05T02:03:04.656Z,12.10
2019-03-05T02:05:39.288Z,12.10
2019-03-05T02:08:13.914Z,12.10
2019-03-05T02:10:48.773Z,12.00
2019-03-05T02:13:23.326Z,12.00
2019-03-05T02:15:57.964Z,12.00
2019-03-05T02:18:32.677Z,12.00
2019-03-05T02:21:07.242Z,12.00
2019-03-05T02:24:31.984Z,12.00
2019-03-05T02:27:26.492Z,12.00
2019-03-05T02:30:22.826Z,12.00
2019-03-05T02:33:22.218Z,12.00
2019-03-05T02:36:06.670Z,12.10
2019-03-05T02:39:34.686Z,12.10
2019-03-05T02:42:43.569Z,12.10
2019-03-05T02:45:45.434Z,12.10
2019-03-05T02:49:00.918Z,12.10
2019-03-05T02:52:25.348Z,12.10
2019-03-05T02:55:49.093Z,12.10
2019-03-05T02:58:21.945Z,12.10
2019-03-05T03:01:21.588Z,12.00
2019-03-05T03:03:59.624Z,12.00
2019-03-05T03:06:35.273Z,12.00
2019-03-05T03:09:52.875Z,12.00
2019-03-05T03:12:27.507Z,12.00
2019-03-05T03:15:02.063Z,12.00
2019-03-05T03:17:36.693Z,12.00
2019-03-05T03:20:12.811Z,12.10
2019-03-05T03:22:47.535Z,12.10
2019-03-05T03:25:23.175Z,12.10
2019-03-05T03:27:57.724Z,12.10
2019-03-05T03:30:32.300Z,12.10
2019-03-05T03:33:06.929Z,12.10
2019-03-05T03:35:41.555Z,12.10
2019-03-05T03:38:16.162Z,12.10
2019-03-05T03:40:50.724Z,12.10
2019-03-05T03:43:26.491Z,12.10
2019-03-05T03:46:01.123Z,12.10
2019-03-05T03:48:35.688Z,12.10
2019-03-05T03:51:10.329Z,12.00
2019-03-05T03:53:45.030Z,12.00
2019-03-05T03:56:19.580Z,12.00
2019-03-05T03:58:54.126Z,11.90
2019-03-05T04:01:28.765Z,11.90
2019-03-05T04:04:03.320Z,11.90
2019-03-05T04:06:37.949Z,11.90
2019-03-05T04:09:12.676Z,11.90
2019-03-05T04:11:47.297Z,11.90
2019-03-05T04:14:21.851Z,11.90
2019-03-05T04:16:56.487Z,11.90
2019-03-05T04:19:33.750Z,11.80
2019-03-05T04:22:08.401Z,11.80
2019-03-05T04:24:43.022Z,11.80
2019-03-05T04:27:17.668Z,11.80
2019-03-05T04:29:52.229Z,11.80
2019-03-05T04:32:26.860Z,11.80
2019-03-05T04:35:01.491Z,11.70
2019-03-05T04:37:36.109Z,11.70
2019-03-05T04:40:11.629Z,11.70
2019-03-05T04:42:46.250Z,11.70
2019-03-05T04:45:33.705Z,11.70
2019-03-05T04:48:08.271Z,11.70
2019-03-05T04:51:13.808Z,11.70
2019-03-05T04:53:48.382Z,11.70
2019-03-05T04:56:23.036Z,11.70
2019-03-05T04:58:57.617Z,11.70
2019-03-05T05:01:32.225Z,11.70
2019-03-05T05:04:06.896Z,11.70
2019-03-05T05:06:41.437Z,11.80
2019-03-05T05:09:16.000Z,11.80
2019-03-05T05:11:50.536Z,11.80
2019-03-05T05:14:25.102Z,11.80
2019-03-05T05:16:59.631Z,11.80
2019-03-05T05:19:34.202Z,11.90
2019-03-05T05:22:08.757Z,11.90
2019-03-05T05:24:43.393Z,11.90
2019-03-05T05:27:17.940Z,11.90
2019-03-05T05:29:52.515Z,11.90
2019-03-05T05:32:27.144Z,11.90
2019-03-05T05:35:01.737Z,11.90
2019-03-05T05:37:36.290Z,11.90
2019-03-05T05:40:27.724Z,11.90
2019-03-05T05:43:02.363Z,11.90
2019-03-05T05:45:55.644Z,11.90
2019-03-05T05:48:30.283Z,11.90
2019-03-05T05:51:04.928Z,11.90
2019-03-05T05:53:39.566Z,11.90
2019-03-05T05:56:14.124Z,11.90
2019-03-05T05:58:48.738Z,11.90
2019-03-05T06:01:23.309Z,11.90
2019-03-05T06:03:57.863Z,11.80
2019-03-05T06:06:32.501Z,11.90
2019-03-05T06:09:09.434Z,11.90
2019-03-05T06:11:44.059Z,11.90
2019-03-05T06:14:18.612Z,11.90
2019-03-05T06:16:53.248Z,11.90
2019-03-05T06:19:27.808Z,11.90
2019-03-05T06:22:02.376Z,11.90
2019-03-05T06:24:36.997Z,12.00
2019-03-05T06:27:11.916Z,12.00
2019-03-05T06:29:46.466Z,12.00
2019-03-05T06:32:21.109Z,12.10
2019-03-05T06:34:55.673Z,12.10
2019-03-05T06:37:32.921Z,12.10
2019-03-05T06:40:08.892Z,12.20
2019-03-05T06:42:43.445Z,12.20
2019-03-05T06:45:18.093Z,12.20
2019-03-05T06:47:52.696Z,12.30
2019-03-05T06:50:27.294Z,12.30
2019-03-05T06:53:01.927Z,12.40
2019-03-05T06:55:36.484Z,12.40
2019-03-05T06:58:14.171Z,12.40
2019-03-05T07:00:48.807Z,12.40
2019-03-05T07:03:23.451Z,12.50
2019-03-05T07:06:34.072Z,12.60
2019-03-05T07:09:28.610Z,12.60
2019-03-05T07:12:39.661Z,12.60
2019-03-05T07:15:57.068Z,12.70
2019-03-05T07:18:40.937Z,12.70
2019-03-05T07:21:58.120Z,12.80
2019-03-05T07:24:49.348Z,12.80
2019-03-05T07:27:44.164Z,12.90
2019-03-05T07:30:23.180Z,12.90
2019-03-05T07:32:59.155Z,13.00
2019-03-05T07:35:34.696Z,13.00
2019-03-05T07:38:12.676Z,13.10
2019-03-05T07:40:47.213Z,13.10
2019-03-05T07:43:21.776Z,13.10
2019-03-05T07:45:56.358Z,13.20
2019-03-05T07:48:31.134Z,13.20
2019-03-05T07:51:05.752Z,13.20
2019-03-05T07:53:40.416Z,13.30
2019-03-05T07:56:15.035Z,13.30
2019-03-05T07:58:49.596Z,13.40
2019-03-05T08:01:24.154Z,13.40
2019-03-05T08:03:58.718Z,13.40
2019-03-05T08:06:33.344Z,13.40
2019-03-05T08:09:45.193Z,13.50
2019-03-05T08:12:45.229Z,13.50
2019-03-05T08:15:39.165Z,13.60
2019-03-05T08:18:13.800Z,13.60
2019-03-05T08:20:48.374Z,13.70
2019-03-05T08:23:22.904Z,13.70
2019-03-05T08:25:57.553Z,13.80
2019-03-05T08:28:32.098Z,13.90
2019-03-05T08:31:06.656Z,14.00
2019-03-05T08:33:41.205Z,14.10
2019-03-05T08:36:15.908Z,14.10
2019-03-05T08:38:50.465Z,14.10
2019-03-05T08:41:25.137Z,14.20
2019-03-05T08:43:59.818Z,14.10
2019-03-05T08:46:34.469Z,14.10
2019-03-05T08:49:09.028Z,14.10
2019-03-05T08:51:43.593Z,14.10
2019-03-05T08:54:18.208Z,14.10
2019-03-05T08:56:52.845Z,14.10
2019-03-05T08:59:27.463Z,14.10
2019-03-05T09:02:02.132Z,14.00
2019-03-05T09:04:36.692Z,14.00
2019-03-05T09:07:11.372Z,14.00
2019-03-05T09:09:45.923Z,13.90
2019-03-05T09:12:20.484Z,13.90
2019-03-05T09:14:55.048Z,13.90
2019-03-05T09:17:29.697Z,13.90
2019-03-05T09:20:05.228Z,13.90
2019-03-05T09:22:40.021Z,13.90
2019-03-05T09:25:15.368Z,13.90
2019-03-05T09:27:49.937Z,13.90
2019-03-05T09:30:24.667Z,13.90
2019-03-05T09:32:59.316Z,13.90
2019-03-05T09:35:33.868Z,13.90
2019-03-05T09:38:08.428Z,14.00
2019-03-05T09:40:42.966Z,14.00
2019-03-05T09:43:17.524Z,14.10
2019-03-05T09:45:52.161Z,14.20
2019-03-05T09:48:26.722Z,14.30
2019-03-05T09:51:01.375Z,14.30
2019-03-05T09:53:36.026Z,14.30
2019-03-05T09:56:10.647Z,14.40
2019-03-05T09:58:45.279Z,14.40
2019-03-05T10:01:19.904Z,14.40
2019-03-05T10:03:54.524Z,14.40
2019-03-05T10:06:29.069Z,14.50
2019-03-05T10:09:05.404Z,14.50
2019-03-05T10:11:40.013Z,14.50
2019-03-05T10:14:14.648Z,14.50
2019-03-05T10:16:49.180Z,14.60
2019-03-05T10:19:23.852Z,14.60
2019-03-05T10:21:58.412Z,14.60
2019-03-05T10:24:33.169Z,14.60
2019-03-05T10:27:07.801Z,14.70
2019-03-05T10:29:42.428Z,14.60
2019-03-05T10:32:17.077Z,14.60
2019-03-05T10:34:51.721Z,14.60
2019-03-05T10:37:26.524Z,14.60
2019-03-05T10:40:01.636Z,14.60
2019-03-05T10:42:36.320Z,14.60
2019-03-05T10:45:33.555Z,14.60
2019-03-05T10:48:37.315Z,14.60
2019-03-05T10:51:39.870Z,14.60
2019-03-05T10:54:20.786Z,14.60
2019-03-05T10:56:58.437Z,14.60
2019-03-05T10:59:32.993Z,14.60
2019-03-05T11:02:07.759Z,14.60
2019-03-05T11:04:45.647Z,14.60
2019-03-05T11:07:18.683Z,14.70
2019-03-05T11:09:54.880Z,14.70
2019-03-05T11:12:29.655Z,14.80
2019-03-05T11:15:04.455Z,14.80
2019-03-05T11:17:39.014Z,14.90
2019-03-05T11:20:13.583Z,15.00
2019-03-05T11:22:48.293Z,15.00
2019-03-05T11:25:23.132Z,15.10
2019-03-05T11:27:57.708Z,15.20
2019-03-05T11:30:36.411Z,15.20
2019-03-05T11:33:10.134Z,15.30
2019-03-05T11:35:44.684Z,15.40
2019-03-05T11:38:19.947Z,15.40
2019-03-05T11:40:54.655Z,15.50
2019-03-05T11:43:29.228Z,15.50
2019-03-05T11:46:05.188Z,15.50
2019-03-05T11:48:39.753Z,15.60
2019-03-05T11:51:14.531Z,15.60
2019-03-05T11:53:49.154Z,15.60
2019-03-05T11:56:23.713Z,15.60
2019-03-05T11:58:58.352Z,15.60
2019-03-05T12:01:38.961Z,15.60
2019-03-05T12:04:13.704Z,15.60
2019-03-05T12:06:48.338Z,15.60
2019-03-05T12:09:40.350Z,15.50
2019-03-05T12:17:24.582Z,15.50
2019-03-05T12:20:00.371Z,15.50
2019-03-05T12:22:35.070Z,15.50
2019-03-05T12:25:14.534Z,15.50
2019-03-05T12:27:49.634Z,15.50
2019-03-05T12:30:24.304Z,15.50
2019-03-05T12:32:58.944Z,15.50
2019-03-05T12:35:35.405Z,15.50
2019-03-05T12:38:09.752Z,15.50
2019-03-05T12:40:44.304Z,15.50
2019-03-05T12:43:18.871Z,15.60
2019-03-05T12:45:53.505Z,15.60
2019-03-05T12:48:39.288Z,15.70
2019-03-05T12:51:04.395Z,15.70
2019-03-05T12:53:39.092Z,15.80
2019-03-05T12:56:23.517Z,15.80
2019-03-05T12:58:49.906Z,15.90
2019-03-05T13:01:24.464Z,15.90
2019-03-05T13:03:59.033Z,16.00
2019-03-05T13:06:33.584Z,16.00
2019-03-05T13:09:13.656Z,16.00
2019-03-05T13:11:49.908Z,16.10
2019-03-05T13:14:23.227Z,16.10
2019-03-05T13:16:57.868Z,16.10
2019-03-05T13:19:32.499Z,16.10
2019-03-05T13:22:07.164Z,16.10
2019-03-05T13:24:41.693Z,16.10
2019-03-05T13:27:18.814Z,16.10
2019-03-05T13:29:52.535Z,16.20
2019-03-05T13:32:27.164Z,16.20
2019-03-05T13:35:01.743Z,16.20
2019-03-05T13:37:36.373Z,16.20
2019-03-05T13:40:13.632Z,16.30
2019-03-05T13:42:48.285Z,16.30
2019-03-05T13:45:24.148Z,16.30
2019-03-05T13:48:19.817Z,16.30
2019-03-05T13:51:10.092Z,16.30
2019-03-05T13:54:01.305Z,16.30
2019-03-05T13:56:50.428Z,16.30
2019-03-05T13:59:41.731Z,16.40
2019-03-05T14:02:26.520Z,16.40
2019-03-05T14:05:33.389Z,16.40
2019-03-05T14:09:04.336Z,16.40
2019-03-05T14:11:38.923Z,16.40
2019-03-05T14:14:28.519Z,16.50
2019-03-05T14:17:20.219Z,16.50
2019-03-05T14:19:54.912Z,16.50
2019-03-05T14:22:29.464Z,16.50
2019-03-05T14:25:05.299Z,16.50
2019-03-05T14:27:40.872Z,16.60
2019-03-05T14:30:17.775Z,16.60
2019-03-05T14:32:52.508Z,16.60
2019-03-05T14:35:29.586Z,16.60
2019-03-05T14:38:04.355Z,16.60
2019-03-05T14:40:39.095Z,16.60
2019-03-05T14:43:13.749Z,16.60
2019-03-05T14:45:48.590Z,16.60
2019-03-05T14:48:23.208Z,16.60
2019-03-05T14:50:57.885Z,16.60
2019-03-05T14:53:32.465Z,16.60
2019-03-05T14:56:07.125Z,16.60
2019-03-05T14:58:41.695Z,16.60
2019-03-05T15:01:16.342Z,16.60
2019-03-05T15:03:50.946Z,16.60
2019-03-05T15:06:25.520Z,16.70
2019-03-05T15:09:00.084Z,16.60
2019-03-05T15:11:34.740Z,16.60
2019-03-05T15:14:09.398Z,16.60
2019-03-05T15:16:44.059Z,16.50
2019-03-05T15:19:21.718Z,16.50
2019-03-05T15:21:54.945Z,16.50
2019-03-05T15:24:29.552Z,16.50
2019-03-05T15:27:04.202Z,16.40
2019-03-05T15:29:38.773Z,16.40
2019-03-05T15:32:13.339Z,16.40
2019-03-05T15:34:47.949Z,16.40
2019-03-05T15:37:22.671Z,16.40
2019-03-05T15:39:57.320Z,16.40
2019-03-05T15:42:31.980Z,16.40
2019-03-05T15:45:19.178Z,16.40
2019-03-05T15:47:49.445Z,16.40
2019-03-05T15:50:24.088Z,16.40
2019-03-05T15:52:58.722Z,16.40
2019-03-05T15:55:33.337Z,16.40
2019-03-05T15:58:08.013Z,16.40
2019-03-05T16:00:42.936Z,16.40
2019-03-05T16:03:17.517Z,16.30
2019-03-05T16:06:02.069Z,16.30
2019-03-05T16:08:49.431Z,16.30
2019-03-05T16:11:24.076Z,16.20
2019-03-05T16:13:58.725Z,16.10
2019-03-05T16:16:33.348Z,16.00
2019-03-05T16:19:07.848Z,16.00
2019-03-05T16:21:42.837Z,15.90
2019-03-05T16:24:17.620Z,15.80
2019-03-05T16:26:52.329Z,15.80
2019-03-05T16:29:27.013Z,15.70
2019-03-05T16:32:26.844Z,15.70
2019-03-05T16:35:19.547Z,15.70
2019-03-05T16:38:18.790Z,15.60
2019-03-05T16:41:25.080Z,15.60
2019-03-05T16:44:09.725Z,15.60
2019-03-05T16:47:07.553Z,15.50
2019-03-05T16:50:05.353Z,15.50
2019-03-05T16:52:59.101Z,15.50
2019-03-05T16:56:06.233Z,15.50
2019-03-05T16:59:18.256Z,15.50
2019-03-05T17:02:30.113Z,15.50
2019-03-05T17:05:38.866Z,15.40
2019-03-05T17:08:31.161Z,15.40
2019-03-05T17:11:43.656Z,15.40
2019-03-05T17:14:18.306Z,15.40
2019-03-05T17:16:53.040Z,15.30
2019-03-05T17:19:27.585Z,15.30
2019-03-05T17:22:02.234Z,15.20
2019-03-05T17:24:36.857Z,15.20
2019-03-05T17:27:24.186Z,15.10
2019-03-05T17:29:59.126Z,15.00
2019-03-05T17:32:33.757Z,14.90
2019-03-05T17:35:08.705Z,14.80
2019-03-05T17:37:43.365Z,14.70
2019-03-05T17:40:18.084Z,14.60
2019-03-05T17:42:52.762Z,14.50
2019-03-05T17:45:27.497Z,14.50
2019-03-05T17:48:02.292Z,14.40
2019-03-05T17:50:36.933Z,14.30
2019-03-05T17:53:11.522Z,14.30
2019-03-05T17:55:46.245Z,14.20
2019-03-05T17:58:20.893Z,14.10
2019-03-05T18:00:56.144Z,14.10
2019-03-05T18:03:32.031Z,14.00
2019-03-05T18:06:09.447Z,14.00
2019-03-05T18:08:44.085Z,14.00
2019-03-05T18:11:18.765Z,13.90
2019-03-05T18:13:53.695Z,13.90
2019-03-05T18:16:28.335Z,13.80
2019-03-05T18:19:02.983Z,13.80
2019-03-05T18:21:37.593Z,13.80
2019-03-05T18:24:12.184Z,13.70
2019-03-05T18:26:46.813Z,13.70
2019-03-05T18:29:21.477Z,13.60
2019-03-05T18:31:56.302Z,13.60
2019-03-05T18:34:33.657Z,13.50
2019-03-05T18:37:08.289Z,13.50
2019-03-05T18:39:43.036Z,13.50
2019-03-05T18:42:17.749Z,13.40
2019-03-05T18:44:52.986Z,13.40
2019-03-05T18:47:28.199Z,13.30
2019-03-05T18:50:03.441Z,13.30
2019-03-05T18:52:38.657Z,13.30
2019-03-05T18:55:14.357Z,13.30
2019-03-05T18:57:49.890Z,13.30
2019-03-05T19:00:25.042Z,13.20
2019-03-05T19:02:59.808Z,13.20
2019-03-05T19:05:35.162Z,13.10
2019-03-05T19:08:10.561Z,13.10
2019-03-05T19:10:45.770Z,13.00
2019-03-05T19:13:21.074Z,13.00
2019-03-05T19:15:56.383Z,13.00
2019-03-05T19:18:31.535Z,12.90
2019-03-05T19:21:06.777Z,12.90
2019-03-05T19:23:42.002Z,12.80
2019-03-05T19:26:17.260Z,12.80
2019-03-05T19:28:52.450Z,12.80
2019-03-05T19:31:27.780Z,12.70
2019-03-05T19:34:05.873Z,12.70
2019-03-05T19:36:41.097Z,12.60
2019-03-05T19:39:16.571Z,12.60
2019-03-05T19:41:56.017Z,12.50
2019-03-05T19:44:29.040Z,12.40
2019-03-05T19:47:04.305Z,12.40
2019-03-05T19:49:39.571Z,12.30
2019-03-05T19:52:14.737Z,12.30
2019-03-05T19:54:49.961Z,12.20
2019-03-05T19:57:25.209Z,12.20
2019-03-05T20:00:00.503Z,12.20
2019-03-05T20:02:35.736Z,12.10
2019-03-05T20:05:11.978Z,12.10
2019-03-05T20:07:47.205Z,12.10
2019-03-05T20:10:22.636Z,12.20
2019-03-05T20:12:57.944Z,12.20
2019-03-05T20:15:33.269Z,12.20
2019-03-05T20:18:08.848Z,12.20
2019-03-05T20:20:44.068Z,12.20
2019-03-05T20:23:19.296Z,12.20
2019-03-05T20:25:54.487Z,12.20
2019-03-05T20:28:29.653Z,12.20
2019-03-05T20:31:04.395Z,12.30
2019-03-05T20:33:39.246Z,12.30
2019-03-05T20:36:14.595Z,12.30
2019-03-05T20:38:49.821Z,12.30
2019-03-05T20:41:25.038Z,12.40
2019-03-05T20:44:00.722Z,12.40
2019-03-05T20:46:35.932Z,12.40
2019-03-05T20:49:11.162Z,12.40
2019-03-05T20:51:46.692Z,12.40
2019-03-05T20:54:21.994Z,12.50
2019-03-05T20:56:57.304Z,12.40
2019-03-05T20:59:32.567Z,12.50
2019-03-05T21:02:07.792Z,12.40
2019-03-05T21:04:46.133Z,12.40
2019-03-05T21:07:21.432Z,12.40
2019-03-05T21:09:56.737Z,12.40
2019-03-05T21:12:31.969Z,12.40
2019-03-05T21:15:07.868Z,12.40
2019-03-05T21:17:43.592Z,12.40
2019-03-05T21:20:18.839Z,12.40
2019-03-05T21:22:54.121Z,12.40
2019-03-05T21:25:29.350Z,12.40
2019-03-05T21:28:04.608Z,12.50
2019-03-05T21:30:40.156Z,12.50
2019-03-05T21:33:15.434Z,12.50
2019-03-05T21:35:50.729Z,12.50
2019-03-05T21:38:25.944Z,12.50
2019-03-05T21:41:01.184Z,12.50
2019-03-05T21:43:36.701Z,12.50
2019-03-05T21:46:15.465Z,12.50
2019-03-05T21:48:50.765Z,12.50
2019-03-05T21:51:26.082Z,12.50
2019-03-05T21:54:01.301Z,12.50
2019-03-05T21:56:36.556Z,12.50
2019-03-05T21:59:11.834Z,12.40
2019-03-05T22:01:47.142Z,12.40
2019-03-05T22:04:22.418Z,12.40
2019-03-05T22:06:57.644Z,12.40
2019-03-05T22:09:33.083Z,12.40
2019-03-05T22:12:08.247Z,12.40
2019-03-05T22:14:43.538Z,12.30
2019-03-05T22:17:19.030Z,12.30
2019-03-05T22:19:54.328Z,12.30
2019-03-05T22:22:29.610Z,12.30
2019-03-05T22:25:05.509Z,12.30
2019-03-05T22:27:41.001Z,12.30
2019-03-05T22:30:18.545Z,12.30
2019-03-05T22:32:54.436Z,12.30
2019-03-05T22:35:29.851Z,12.20
2019-03-05T22:38:05.263Z,12.30
2019-03-05T22:40:40.556Z,12.30
2019-03-05T22:43:15.997Z,12.20
2019-03-05T22:45:51.270Z,12.20
2019-03-05T22:48:26.518Z,12.20
2019-03-05T22:51:01.816Z,12.20
2019-03-05T22:53:37.146Z,12.20
2019-03-05T22:56:12.433Z,12.20
2019-03-05T22:58:47.589Z,12.20
2019-03-05T23:01:34.796Z,12.20
2019-03-05T23:04:11.982Z,12.20
2019-03-05T23:06:47.308Z,12.20
2019-03-05T23:09:26.335Z,12.20
2019-03-05T23:12:01.728Z,12.20
2019-03-05T23:14:37.168Z,12.20
2019-03-05T23:17:12.981Z,12.20
2019-03-05T23:19:48.233Z,12.20
2019-03-05T23:22:23.512Z,12.20
2019-03-05T23:24:58.741Z,12.20
2019-03-05T23:27:34.053Z,12.20
2019-03-05T23:30:10.882Z,12.20
2019-03-05T23:32:48.168Z,12.20
2019-03-05T23:35:23.496Z,12.20
2019-03-05T23:37:58.719Z,12.30
2019-03-05T23:40:34.004Z,12.20
2019-03-05T23:43:09.628Z,12.20
2019-03-05T23:45:44.845Z,12.20
2019-03-05T23:48:20.062Z,12.20
2019-03-05T23:50:55.318Z,12.20
2019-03-05T23:53:30.596Z,12.20
2019-03-05T23:56:05.786Z,12.20
2019-03-05T23:58:41.008Z,12.20
